sensor_id;sensor_type;location;lat;lon;timestamp;temperature;humidity
31733;DHT22;18312;51.486;7.144;2023-02-17T00:01:27;9.70;99.90
31733;DHT22;18312;51.486;7.144;2023-02-17T00:03:55;9.80;99.90
31733;DHT22;18312;51.486;7.144;2023-02-17T00:06:22;9.80;99.90
31733;DHT22;18312;51.486;7.144;2023-02-17T00:08:49;9.80;99.90
31733;DHT22;18312;51.486;7.144;2023-02-17T00:11:16;9.80;99.90
31733;DHT22;18312;51.486;7.144;2023-02-17T00:13:43;9.80;99.90
31733;DHT22;18312;51.486;7.144;2023-02-17T00:16:11;9.80;99.90
31733;DHT22;18312;51.486;7.144;2023-02-17T00:18:38;9.80;99.90
31733;DHT22;18312;51.486;7.144;2023-02-17T00:21:13;9.80;99.90
31733;DHT22;18312;51.486;7.144;2023-02-17T00:23:40;9.90;99.90
31733;DHT22;18312;51.486;7.144;2023-02-17T00:26:06;9.90;99.90
31733;DHT22;18312;51.486;7.144;2023-02-17T00:28:33;9.90;99.90
31733;DHT22;18312;51.486;7.144;2023-02-17T00:31:04;9.90;99.90
31733;DHT22;18312;51.486;7.144;2023-02-17T00:33:30;9.90;99.90
31733;DHT22;18312;51.486;7.144;2023-02-17T00:35:57;9.90;99.90
31733;DHT22;18312;51.486;7.144;2023-02-17T00:38:25;10.00;99.90
31733;DHT22;18312;51.486;7.144;2023-02-17T00:40:51;10.00;99.90
31733;DHT22;18312;51.486;7.144;2023-02-17T00:43:18;10.00;99.90
31733;DHT22;18312;51.486;7.144;2023-02-17T00:45:44;10.00;99.90
31733;DHT22;18312;51.486;7.144;2023-02-17T00:48:11;10.00;99.90
31733;DHT22;18312;51.486;7.144;2023-02-17T00:50:37;10.00;99.90
31733;DHT22;18312;51.486;7.144;2023-02-17T00:53:04;10.00;99.90
31733;DHT22;18312;51.486;7.144;2023-02-17T00:55:32;10.00;99.90
31733;DHT22;18312;51.486;7.144;2023-02-17T00:57:58;10.00;99.90
31733;DHT22;18312;51.486;7.144;2023-02-17T01:00:25;10.10;99.90
31733;DHT22;18312;51.486;7.144;2023-02-17T01:02:51;10.10;99.90
31733;DHT22;18312;51.486;7.144;2023-02-17T01:05:18;10.10;99.90
31733;DHT22;18312;51.486;7.144;2023-02-17T01:07:45;10.10;99.90
31733;DHT22;18312;51.486;7.144;2023-02-17T01:10:11;10.10;99.90
31733;DHT22;18312;51.486;7.144;2023-02-17T01:12:39;10.10;99.90
31733;DHT22;18312;51.486;7.144;2023-02-17T01:15:06;10.10;99.90
31733;DHT22;18312;51.486;7.144;2023-02-17T01:17:33;10.10;99.90
31733;DHT22;18312;51.486;7.144;2023-02-17T01:19:59;10.10;99.90
31733;DHT22;18312;51.486;7.144;2023-02-17T01:22:26;10.10;99.90
31733;DHT22;18312;51.486;7.144;2023-02-17T01:24:52;10.10;99.90
31733;DHT22;18312;51.486;7.144;2023-02-17T01:27:19;10.10;99.90
31733;DHT22;18312;51.486;7.144;2023-02-17T01:29:47;10.00;99.90
31733;DHT22;18312;51.486;7.144;2023-02-17T01:32:13;10.00;99.90
31733;DHT22;18312;51.486;7.144;2023-02-17T01:34:40;10.00;99.90
31733;DHT22;18312;51.486;7.144;2023-02-17T01:37:06;10.00;99.90
31733;DHT22;18312;51.486;7.144;2023-02-17T01:39:33;10.00;99.90
31733;DHT22;18312;51.486;7.144;2023-02-17T01:42:00;10.00;99.90
31733;DHT22;18312;51.486;7.144;2023-02-17T01:44:30;10.00;99.90
31733;DHT22;18312;51.486;7.144;2023-02-17T01:46:58;9.90;99.90
31733;DHT22;18312;51.486;7.144;2023-02-17T01:49:29;9.90;99.90
31733;DHT22;18312;51.486;7.144;2023-02-17T01:51:58;9.90;99.90
31733;DHT22;18312;51.486;7.144;2023-02-17T01:54:28;9.90;99.90
31733;DHT22;18312;51.486;7.144;2023-02-17T01:56:56;9.90;99.90
31733;DHT22;18312;51.486;7.144;2023-02-17T01:59:24;9.80;99.90
31733;DHT22;18312;51.486;7.144;2023-02-17T02:01:51;9.80;99.90
31733;DHT22;18312;51.486;7.144;2023-02-17T02:04:21;9.80;99.90
31733;DHT22;18312;51.486;7.144;2023-02-17T02:06:49;9.80;99.90
31733;DHT22;18312;51.486;7.144;2023-02-17T02:09:17;9.80;99.90
31733;DHT22;18312;51.486;7.144;2023-02-17T02:11:46;9.80;99.90
31733;DHT22;18312;51.486;7.144;2023-02-17T02:14:12;9.80;99.90
31733;DHT22;18312;51.486;7.144;2023-02-17T02:16:41;9.80;99.90
31733;DHT22;18312;51.486;7.144;2023-02-17T02:19:15;9.80;99.90
31733;DHT22;18312;51.486;7.144;2023-02-17T02:21:59;9.80;99.90
31733;DHT22;18312;51.486;7.144;2023-02-17T02:24:34;9.80;99.90
31733;DHT22;18312;51.486;7.144;2023-02-17T02:30:02;9.80;99.90
31733;DHT22;18312;51.486;7.144;2023-02-17T02:32:44;9.80;99.90
31733;DHT22;18312;51.486;7.144;2023-02-17T02:35:12;9.80;99.90
31733;DHT22;18312;51.486;7.144;2023-02-17T02:37:42;9.80;99.90
31733;DHT22;18312;51.486;7.144;2023-02-17T02:40:11;9.80;99.90
31733;DHT22;18312;51.486;7.144;2023-02-17T02:42:39;9.80;99.90
31733;DHT22;18312;51.486;7.144;2023-02-17T02:45:07;9.90;99.90
31733;DHT22;18312;51.486;7.144;2023-02-17T02:47:39;9.90;99.90
31733;DHT22;18312;51.486;7.144;2023-02-17T02:50:09;9.90;99.90
31733;DHT22;18312;51.486;7.144;2023-02-17T02:52:38;10.00;99.90
31733;DHT22;18312;51.486;7.144;2023-02-17T02:55:06;10.00;99.90
31733;DHT22;18312;51.486;7.144;2023-02-17T02:57:36;10.00;99.90
31733;DHT22;18312;51.486;7.144;2023-02-17T03:00:10;10.00;99.90
31733;DHT22;18312;51.486;7.144;2023-02-17T03:02:41;10.10;99.90
31733;DHT22;18312;51.486;7.144;2023-02-17T03:05:11;10.10;99.90
31733;DHT22;18312;51.486;7.144;2023-02-17T03:07:41;10.10;99.90
31733;DHT22;18312;51.486;7.144;2023-02-17T03:10:10;10.10;99.90
31733;DHT22;18312;51.486;7.144;2023-02-17T03:12:36;10.20;99.90
31733;DHT22;18312;51.486;7.144;2023-02-17T03:15:05;10.20;99.90
31733;DHT22;18312;51.486;7.144;2023-02-17T03:17:34;10.20;99.90
31733;DHT22;18312;51.486;7.144;2023-02-17T03:20:01;10.30;99.90
31733;DHT22;18312;51.486;7.144;2023-02-17T03:22:30;10.30;99.90
31733;DHT22;18312;51.486;7.144;2023-02-17T03:24:58;10.40;99.90
31733;DHT22;18312;51.486;7.144;2023-02-17T03:27:25;10.30;99.90
31733;DHT22;18312;51.486;7.144;2023-02-17T03:29:52;10.30;99.90
31733;DHT22;18312;51.486;7.144;2023-02-17T03:32:18;10.30;99.90
31733;DHT22;18312;51.486;7.144;2023-02-17T03:34:45;10.30;99.90
31733;DHT22;18312;51.486;7.144;2023-02-17T03:37:11;10.40;99.90
31733;DHT22;18312;51.486;7.144;2023-02-17T03:39:39;10.40;99.90
31733;DHT22;18312;51.486;7.144;2023-02-17T03:42:06;10.40;99.90
31733;DHT22;18312;51.486;7.144;2023-02-17T03:44:33;10.40;99.90
31733;DHT22;18312;51.486;7.144;2023-02-17T03:46:59;10.40;99.90
31733;DHT22;18312;51.486;7.144;2023-02-17T03:49:26;10.50;99.90
31733;DHT22;18312;51.486;7.144;2023-02-17T03:51:52;10.40;99.90
31733;DHT22;18312;51.486;7.144;2023-02-17T03:54:19;10.50;99.90
31733;DHT22;18312;51.486;7.144;2023-02-17T03:56:47;10.50;99.90
31733;DHT22;18312;51.486;7.144;2023-02-17T03:59:13;10.50;99.90
31733;DHT22;18312;51.486;7.144;2023-02-17T04:01:40;10.50;99.90
31733;DHT22;18312;51.486;7.144;2023-02-17T04:04:06;10.60;99.90
31733;DHT22;18312;51.486;7.144;2023-02-17T04:06:33;10.60;99.90
31733;DHT22;18312;51.486;7.144;2023-02-17T04:08:59;10.60;99.90
31733;DHT22;18312;51.486;7.144;2023-02-17T04:11:26;10.60;99.90
31733;DHT22;18312;51.486;7.144;2023-02-17T04:13:54;10.60;99.90
31733;DHT22;18312;51.486;7.144;2023-02-17T04:16:20;10.60;99.90
31733;DHT22;18312;51.486;7.144;2023-02-17T04:18:47;10.60;99.90
31733;DHT22;18312;51.486;7.144;2023-02-17T04:21:13;10.70;99.90
31733;DHT22;18312;51.486;7.144;2023-02-17T04:23:40;10.60;99.90
31733;DHT22;18312;51.486;7.144;2023-02-17T04:26:07;10.60;99.90
31733;DHT22;18312;51.486;7.144;2023-02-17T04:28:33;10.60;99.90
31733;DHT22;18312;51.486;7.144;2023-02-17T04:31:01;10.60;99.90
31733;DHT22;18312;51.486;7.144;2023-02-17T04:33:29;10.60;99.90
31733;DHT22;18312;51.486;7.144;2023-02-17T04:35:55;10.60;99.90
31733;DHT22;18312;51.486;7.144;2023-02-17T04:38:24;10.70;99.90
31733;DHT22;18312;51.486;7.144;2023-02-17T04:40:51;10.70;99.90
31733;DHT22;18312;51.486;7.144;2023-02-17T04:43:18;10.70;99.90
31733;DHT22;18312;51.486;7.144;2023-02-17T04:45:44;10.70;99.90
31733;DHT22;18312;51.486;7.144;2023-02-17T04:48:12;10.70;99.90
31733;DHT22;18312;51.486;7.144;2023-02-17T04:50:39;10.70;99.90
31733;DHT22;18312;51.486;7.144;2023-02-17T04:53:05;10.70;99.90
31733;DHT22;18312;51.486;7.144;2023-02-17T04:55:32;10.70;99.90
31733;DHT22;18312;51.486;7.144;2023-02-17T04:57:59;10.70;99.90
31733;DHT22;18312;51.486;7.144;2023-02-17T05:00:25;10.70;99.90
31733;DHT22;18312;51.486;7.144;2023-02-17T05:02:52;10.70;99.90
31733;DHT22;18312;51.486;7.144;2023-02-17T05:05:20;10.70;99.90
31733;DHT22;18312;51.486;7.144;2023-02-17T05:07:46;10.80;99.90
31733;DHT22;18312;51.486;7.144;2023-02-17T05:10:13;10.70;99.90
31733;DHT22;18312;51.486;7.144;2023-02-17T05:12:40;10.70;99.90
31733;DHT22;18312;51.486;7.144;2023-02-17T05:15:07;10.70;99.90
31733;DHT22;18312;51.486;7.144;2023-02-17T05:17:34;10.70;99.90
31733;DHT22;18312;51.486;7.144;2023-02-17T05:20:00;10.70;99.90
31733;DHT22;18312;51.486;7.144;2023-02-17T05:22:28;10.70;99.90
31733;DHT22;18312;51.486;7.144;2023-02-17T05:24:55;10.70;99.90
31733;DHT22;18312;51.486;7.144;2023-02-17T05:27:21;10.70;99.90
31733;DHT22;18312;51.486;7.144;2023-02-17T05:29:48;10.80;99.90
31733;DHT22;18312;51.486;7.144;2023-02-17T05:32:15;10.80;99.90
31733;DHT22;18312;51.486;7.144;2023-02-17T05:34:42;10.80;99.90
31733;DHT22;18312;51.486;7.144;2023-02-17T05:37:09;10.80;99.90
31733;DHT22;18312;51.486;7.144;2023-02-17T05:39:37;10.80;99.90
31733;DHT22;18312;51.486;7.144;2023-02-17T05:42:04;10.80;99.90
31733;DHT22;18312;51.486;7.144;2023-02-17T05:44:30;10.80;99.90
31733;DHT22;18312;51.486;7.144;2023-02-17T05:46:57;10.80;99.90
31733;DHT22;18312;51.486;7.144;2023-02-17T05:49:24;10.80;99.90
31733;DHT22;18312;51.486;7.144;2023-02-17T05:51:50;10.80;99.90
31733;DHT22;18312;51.486;7.144;2023-02-17T05:54:17;10.80;99.90
31733;DHT22;18312;51.486;7.144;2023-02-17T05:56:44;10.80;99.90
31733;DHT22;18312;51.486;7.144;2023-02-17T05:59:11;10.80;99.90
31733;DHT22;18312;51.486;7.144;2023-02-17T06:01:37;10.70;99.90
31733;DHT22;18312;51.486;7.144;2023-02-17T06:04:04;10.80;99.90
31733;DHT22;18312;51.486;7.144;2023-02-17T06:06:31;10.80;99.90
31733;DHT22;18312;51.486;7.144;2023-02-17T06:08:57;10.80;99.90
31733;DHT22;18312;51.486;7.144;2023-02-17T06:11:24;10.80;99.90
31733;DHT22;18312;51.486;7.144;2023-02-17T06:13:52;10.80;99.90
31733;DHT22;18312;51.486;7.144;2023-02-17T06:16:18;10.80;99.90
31733;DHT22;18312;51.486;7.144;2023-02-17T06:18:45;10.80;99.90
31733;DHT22;18312;51.486;7.144;2023-02-17T06:21:11;10.80;99.90
31733;DHT22;18312;51.486;7.144;2023-02-17T06:23:38;10.80;99.90
31733;DHT22;18312;51.486;7.144;2023-02-17T06:26:04;10.80;99.90
31733;DHT22;18312;51.486;7.144;2023-02-17T06:28:31;10.80;99.90
31733;DHT22;18312;51.486;7.144;2023-02-17T06:30:59;10.80;99.90
31733;DHT22;18312;51.486;7.144;2023-02-17T06:33:25;10.80;99.90
31733;DHT22;18312;51.486;7.144;2023-02-17T06:35:52;10.80;99.90
31733;DHT22;18312;51.486;7.144;2023-02-17T06:38:19;10.80;99.90
31733;DHT22;18312;51.486;7.144;2023-02-17T06:40:45;10.80;99.90
31733;DHT22;18312;51.486;7.144;2023-02-17T06:43:12;10.80;99.90
31733;DHT22;18312;51.486;7.144;2023-02-17T06:45:38;10.80;99.90
31733;DHT22;18312;51.486;7.144;2023-02-17T06:48:06;10.80;99.90
31733;DHT22;18312;51.486;7.144;2023-02-17T06:50:33;10.80;99.90
31733;DHT22;18312;51.486;7.144;2023-02-17T06:52:59;10.80;99.90
31733;DHT22;18312;51.486;7.144;2023-02-17T06:55:26;10.80;99.90
31733;DHT22;18312;51.486;7.144;2023-02-17T06:57:53;10.70;99.90
31733;DHT22;18312;51.486;7.144;2023-02-17T07:00:19;10.70;99.90
31733;DHT22;18312;51.486;7.144;2023-02-17T07:02:46;10.70;99.90
31733;DHT22;18312;51.486;7.144;2023-02-17T07:05:14;10.60;99.90
31733;DHT22;18312;51.486;7.144;2023-02-17T07:07:40;10.50;99.90
31733;DHT22;18312;51.486;7.144;2023-02-17T07:10:07;10.50;99.90
31733;DHT22;18312;51.486;7.144;2023-02-17T07:12:34;10.40;99.90
31733;DHT22;18312;51.486;7.144;2023-02-17T07:15:00;10.40;99.90
31733;DHT22;18312;51.486;7.144;2023-02-17T07:17:27;10.40;99.90
31733;DHT22;18312;51.486;7.144;2023-02-17T07:19:53;10.30;99.90
31733;DHT22;18312;51.486;7.144;2023-02-17T07:22:21;10.30;99.90
31733;DHT22;18312;51.486;7.144;2023-02-17T07:24:49;10.40;99.90
31733;DHT22;18312;51.486;7.144;2023-02-17T07:27:16;10.40;99.90
31733;DHT22;18312;51.486;7.144;2023-02-17T07:29:42;10.40;99.90
31733;DHT22;18312;51.486;7.144;2023-02-17T07:32:09;10.40;99.90
31733;DHT22;18312;51.486;7.144;2023-02-17T07:34:36;10.40;99.90
31733;DHT22;18312;51.486;7.144;2023-02-17T07:37:02;10.50;99.90
31733;DHT22;18312;51.486;7.144;2023-02-17T07:39:30;10.50;99.90
31733;DHT22;18312;51.486;7.144;2023-02-17T07:41:57;10.50;99.90
31733;DHT22;18312;51.486;7.144;2023-02-17T07:44:25;10.60;99.90
31733;DHT22;18312;51.486;7.144;2023-02-17T07:46:51;10.60;99.90
31733;DHT22;18312;51.486;7.144;2023-02-17T07:49:18;10.60;99.90
31733;DHT22;18312;51.486;7.144;2023-02-17T07:51:45;10.60;99.90
31733;DHT22;18312;51.486;7.144;2023-02-17T07:54:11;10.70;99.90
31733;DHT22;18312;51.486;7.144;2023-02-17T07:56:39;10.70;99.90
31733;DHT22;18312;51.486;7.144;2023-02-17T07:59:07;10.80;99.90
31733;DHT22;18312;51.486;7.144;2023-02-17T08:01:33;10.80;99.90
31733;DHT22;18312;51.486;7.144;2023-02-17T08:04:00;10.80;99.90
31733;DHT22;18312;51.486;7.144;2023-02-17T08:06:26;10.90;99.90
31733;DHT22;18312;51.486;7.144;2023-02-17T08:08:53;11.00;99.90
31733;DHT22;18312;51.486;7.144;2023-02-17T08:11:37;10.90;99.90
31733;DHT22;18312;51.486;7.144;2023-02-17T08:14:24;11.00;99.90
31733;DHT22;18312;51.486;7.144;2023-02-17T08:16:51;11.00;99.90
31733;DHT22;18312;51.486;7.144;2023-02-17T08:19:18;11.00;99.90
31733;DHT22;18312;51.486;7.144;2023-02-17T08:21:44;11.00;99.90
31733;DHT22;18312;51.486;7.144;2023-02-17T08:24:11;11.10;99.90
31733;DHT22;18312;51.486;7.144;2023-02-17T08:26:38;11.10;99.90
31733;DHT22;18312;51.486;7.144;2023-02-17T08:29:04;11.10;99.90
31733;DHT22;18312;51.486;7.144;2023-02-17T08:31:33;11.20;99.90
31733;DHT22;18312;51.486;7.144;2023-02-17T08:34:00;11.20;99.90
31733;DHT22;18312;51.486;7.144;2023-02-17T08:36:27;11.20;99.90
31733;DHT22;18312;51.486;7.144;2023-02-17T08:38:54;11.20;99.90
31733;DHT22;18312;51.486;7.144;2023-02-17T08:41:21;11.30;99.90
31733;DHT22;18312;51.486;7.144;2023-02-17T08:43:48;11.30;99.90
31733;DHT22;18312;51.486;7.144;2023-02-17T08:46:16;11.30;99.90
31733;DHT22;18312;51.486;7.144;2023-02-17T08:48:44;11.30;99.90
31733;DHT22;18312;51.486;7.144;2023-02-17T08:51:11;11.30;99.90
31733;DHT22;18312;51.486;7.144;2023-02-17T08:53:38;11.40;99.90
31733;DHT22;18312;51.486;7.144;2023-02-17T08:56:05;11.50;99.90
31733;DHT22;18312;51.486;7.144;2023-02-17T08:58:31;11.50;99.90
31733;DHT22;18312;51.486;7.144;2023-02-17T09:00:58;11.60;99.90
31733;DHT22;18312;51.486;7.144;2023-02-17T09:03:24;11.60;99.90
31733;DHT22;18312;51.486;7.144;2023-02-17T09:05:53;11.70;99.90
31733;DHT22;18312;51.486;7.144;2023-02-17T09:08:20;11.70;99.90
31733;DHT22;18312;51.486;7.144;2023-02-17T09:10:47;11.70;99.90
31733;DHT22;18312;51.486;7.144;2023-02-17T09:13:15;11.80;99.90
31733;DHT22;18312;51.486;7.144;2023-02-17T09:15:41;11.80;99.90
31733;DHT22;18312;51.486;7.144;2023-02-17T09:18:08;11.80;99.90
31733;DHT22;18312;51.486;7.144;2023-02-17T09:20:34;11.90;99.90
31733;DHT22;18312;51.486;7.144;2023-02-17T09:23:02;11.90;99.90
31733;DHT22;18312;51.486;7.144;2023-02-17T09:25:29;12.00;99.90
31733;DHT22;18312;51.486;7.144;2023-02-17T09:27:55;12.10;99.90
31733;DHT22;18312;51.486;7.144;2023-02-17T09:30:22;12.10;99.90
31733;DHT22;18312;51.486;7.144;2023-02-17T09:32:49;12.20;99.90
31733;DHT22;18312;51.486;7.144;2023-02-17T09:35:16;12.30;99.90
31733;DHT22;18312;51.486;7.144;2023-02-17T09:37:43;12.40;99.90
31733;DHT22;18312;51.486;7.144;2023-02-17T09:40:15;12.40;99.90
31733;DHT22;18312;51.486;7.144;2023-02-17T09:42:42;12.50;99.90
31733;DHT22;18312;51.486;7.144;2023-02-17T09:45:10;12.70;99.90
31733;DHT22;18312;51.486;7.144;2023-02-17T09:47:37;12.70;99.90
31733;DHT22;18312;51.486;7.144;2023-02-17T09:50:07;12.80;99.90
31733;DHT22;18312;51.486;7.144;2023-02-17T09:52:35;12.80;99.90
31733;DHT22;18312;51.486;7.144;2023-02-17T09:55:05;12.90;99.90
31733;DHT22;18312;51.486;7.144;2023-02-17T09:57:34;12.80;99.90
31733;DHT22;18312;51.486;7.144;2023-02-17T10:00:03;12.90;99.90
31733;DHT22;18312;51.486;7.144;2023-02-17T10:02:33;13.00;99.90
31733;DHT22;18312;51.486;7.144;2023-02-17T10:05:02;12.90;99.90
31733;DHT22;18312;51.486;7.144;2023-02-17T10:07:31;13.00;99.90
31733;DHT22;18312;51.486;7.144;2023-02-17T10:10:02;13.20;99.90
31733;DHT22;18312;51.486;7.144;2023-02-17T10:12:31;13.20;99.90
31733;DHT22;18312;51.486;7.144;2023-02-17T10:15:04;13.30;99.90
31733;DHT22;18312;51.486;7.144;2023-02-17T10:17:33;13.30;99.90
31733;DHT22;18312;51.486;7.144;2023-02-17T10:20:03;13.20;99.90
31733;DHT22;18312;51.486;7.144;2023-02-17T10:22:30;13.20;99.90
31733;DHT22;18312;51.486;7.144;2023-02-17T10:24:57;13.30;99.90
31733;DHT22;18312;51.486;7.144;2023-02-17T10:27:35;13.30;99.90
31733;DHT22;18312;51.486;7.144;2023-02-17T10:30:17;13.20;99.90
31733;DHT22;18312;51.486;7.144;2023-02-17T10:32:47;13.30;99.90
31733;DHT22;18312;51.486;7.144;2023-02-17T10:35:17;13.10;99.90
31733;DHT22;18312;51.486;7.144;2023-02-17T10:37:48;13.10;99.90
31733;DHT22;18312;51.486;7.144;2023-02-17T10:40:18;13.20;99.90
31733;DHT22;18312;51.486;7.144;2023-02-17T10:42:45;13.20;99.90
31733;DHT22;18312;51.486;7.144;2023-02-17T10:45:14;13.20;99.90
31733;DHT22;18312;51.486;7.144;2023-02-17T10:47:46;13.20;99.90
31733;DHT22;18312;51.486;7.144;2023-02-17T10:50:14;13.20;99.90
31733;DHT22;18312;51.486;7.144;2023-02-17T10:52:42;13.30;99.90
31733;DHT22;18312;51.486;7.144;2023-02-17T10:55:12;13.40;99.90
31733;DHT22;18312;51.486;7.144;2023-02-17T10:57:42;13.50;99.90
31733;DHT22;18312;51.486;7.144;2023-02-17T11:00:13;13.40;99.90
31733;DHT22;18312;51.486;7.144;2023-02-17T11:02:41;13.50;99.90
31733;DHT22;18312;51.486;7.144;2023-02-17T11:05:18;13.50;99.90
31733;DHT22;18312;51.486;7.144;2023-02-17T11:07:45;13.50;99.90
31733;DHT22;18312;51.486;7.144;2023-02-17T11:10:19;13.50;99.90
31733;DHT22;18312;51.486;7.144;2023-02-17T11:12:46;13.50;99.90
31733;DHT22;18312;51.486;7.144;2023-02-17T11:15:14;13.40;99.90
31733;DHT22;18312;51.486;7.144;2023-02-17T11:17:42;13.40;99.90
31733;DHT22;18312;51.486;7.144;2023-02-17T11:22:59;13.50;99.90
31733;DHT22;18312;51.486;7.144;2023-02-17T11:25:26;13.60;99.90
31733;DHT22;18312;51.486;7.144;2023-02-17T11:27:54;13.70;99.90
31733;DHT22;18312;51.486;7.144;2023-02-17T11:30:21;13.80;99.90
31733;DHT22;18312;51.486;7.144;2023-02-17T11:32:48;13.90;99.90
31733;DHT22;18312;51.486;7.144;2023-02-17T11:35:22;14.10;99.90
31733;DHT22;18312;51.486;7.144;2023-02-17T11:37:49;14.40;99.90
31733;DHT22;18312;51.486;7.144;2023-02-17T11:40:23;14.40;99.90
31733;DHT22;18312;51.486;7.144;2023-02-17T11:42:56;14.40;99.90
31733;DHT22;18312;51.486;7.144;2023-02-17T11:45:23;14.60;99.90
31733;DHT22;18312;51.486;7.144;2023-02-17T11:47:53;14.50;99.90
31733;DHT22;18312;51.486;7.144;2023-02-17T11:50:25;14.50;99.90
31733;DHT22;18312;51.486;7.144;2023-02-17T11:53:00;14.50;99.90
31733;DHT22;18312;51.486;7.144;2023-02-17T11:55:33;14.50;99.90
31733;DHT22;18312;51.486;7.144;2023-02-17T11:58:04;14.40;99.90
31733;DHT22;18312;51.486;7.144;2023-02-17T12:00:35;14.30;99.90
31733;DHT22;18312;51.486;7.144;2023-02-17T12:03:16;14.20;99.90
31733;DHT22;18312;51.486;7.144;2023-02-17T12:05:51;14.10;99.90
31733;DHT22;18312;51.486;7.144;2023-02-17T12:08:21;14.00;99.90
31733;DHT22;18312;51.486;7.144;2023-02-17T12:10:54;13.90;99.90
31733;DHT22;18312;51.486;7.144;2023-02-17T12:13:28;13.90;99.90
31733;DHT22;18312;51.486;7.144;2023-02-17T12:16:04;14.00;99.90
31733;DHT22;18312;51.486;7.144;2023-02-17T12:18:37;14.10;99.90
31733;DHT22;18312;51.486;7.144;2023-02-17T12:21:08;14.20;99.90
31733;DHT22;18312;51.486;7.144;2023-02-17T12:26:24;14.30;99.90
31733;DHT22;18312;51.486;7.144;2023-02-17T12:28:57;14.20;99.90
31733;DHT22;18312;51.486;7.144;2023-02-17T12:31:32;14.30;99.90
31733;DHT22;18312;51.486;7.144;2023-02-17T12:34:04;14.30;99.90
31733;DHT22;18312;51.486;7.144;2023-02-17T12:36:37;14.30;99.90
31733;DHT22;18312;51.486;7.144;2023-02-17T12:39:10;14.30;99.90
31733;DHT22;18312;51.486;7.144;2023-02-17T12:41:41;14.30;99.90
31733;DHT22;18312;51.486;7.144;2023-02-17T12:44:11;14.30;99.90
31733;DHT22;18312;51.486;7.144;2023-02-17T12:46:39;14.30;99.90
31733;DHT22;18312;51.486;7.144;2023-02-17T12:49:08;14.30;99.90
31733;DHT22;18312;51.486;7.144;2023-02-17T12:51:37;14.30;99.90
31733;DHT22;18312;51.486;7.144;2023-02-17T12:54:05;14.30;99.90
31733;DHT22;18312;51.486;7.144;2023-02-17T12:56:37;14.20;99.90
31733;DHT22;18312;51.486;7.144;2023-02-17T12:59:11;14.10;99.90
31733;DHT22;18312;51.486;7.144;2023-02-17T13:01:41;14.20;99.90
31733;DHT22;18312;51.486;7.144;2023-02-17T13:04:11;14.10;99.90
31733;DHT22;18312;51.486;7.144;2023-02-17T13:06:41;14.10;99.90
31733;DHT22;18312;51.486;7.144;2023-02-17T13:09:14;14.10;99.90
31733;DHT22;18312;51.486;7.144;2023-02-17T13:11:43;14.10;99.90
31733;DHT22;18312;51.486;7.144;2023-02-17T13:14:11;14.20;99.90
31733;DHT22;18312;51.486;7.144;2023-02-17T13:16:41;14.10;99.90
31733;DHT22;18312;51.486;7.144;2023-02-17T13:19:08;14.20;99.90
31733;DHT22;18312;51.486;7.144;2023-02-17T13:21:34;14.20;99.90
31733;DHT22;18312;51.486;7.144;2023-02-17T13:24:02;14.30;99.90
31733;DHT22;18312;51.486;7.144;2023-02-17T13:26:29;14.30;99.90
31733;DHT22;18312;51.486;7.144;2023-02-17T13:31:47;14.30;99.90
31733;DHT22;18312;51.486;7.144;2023-02-17T13:34:22;14.30;99.90
31733;DHT22;18312;51.486;7.144;2023-02-17T13:36:49;14.40;99.90
31733;DHT22;18312;51.486;7.144;2023-02-17T13:39:30;14.40;99.90
31733;DHT22;18312;51.486;7.144;2023-02-17T13:41:57;14.40;99.90
31733;DHT22;18312;51.486;7.144;2023-02-17T13:44:26;14.30;99.90
31733;DHT22;18312;51.486;7.144;2023-02-17T13:46:55;14.30;99.90
31733;DHT22;18312;51.486;7.144;2023-02-17T13:49:23;14.30;99.90
31733;DHT22;18312;51.486;7.144;2023-02-17T13:51:52;14.20;99.90
31733;DHT22;18312;51.486;7.144;2023-02-17T13:54:19;14.20;99.90
31733;DHT22;18312;51.486;7.144;2023-02-17T13:56:48;14.10;99.90
31733;DHT22;18312;51.486;7.144;2023-02-17T13:59:16;14.10;99.90
31733;DHT22;18312;51.486;7.144;2023-02-17T14:01:43;14.00;99.90
31733;DHT22;18312;51.486;7.144;2023-02-17T14:04:19;14.00;99.90
31733;DHT22;18312;51.486;7.144;2023-02-17T14:06:46;14.00;99.90
31733;DHT22;18312;51.486;7.144;2023-02-17T14:09:18;13.90;99.90
31733;DHT22;18312;51.486;7.144;2023-02-17T14:11:45;13.90;99.90
31733;DHT22;18312;51.486;7.144;2023-02-17T14:14:11;13.80;99.90
31733;DHT22;18312;51.486;7.144;2023-02-17T14:16:38;13.80;99.90
31733;DHT22;18312;51.486;7.144;2023-02-17T14:19:06;13.80;99.90
31733;DHT22;18312;51.486;7.144;2023-02-17T14:21:34;13.80;99.90
31733;DHT22;18312;51.486;7.144;2023-02-17T14:24:01;13.80;99.90
31733;DHT22;18312;51.486;7.144;2023-02-17T14:26:29;13.70;99.90
31733;DHT22;18312;51.486;7.144;2023-02-17T14:28:56;13.70;99.90
31733;DHT22;18312;51.486;7.144;2023-02-17T14:31:23;13.70;99.90
31733;DHT22;18312;51.486;7.144;2023-02-17T14:33:57;13.70;99.90
31733;DHT22;18312;51.486;7.144;2023-02-17T14:36:25;13.60;99.90
31733;DHT22;18312;51.486;7.144;2023-02-17T14:38:54;13.60;99.90
31733;DHT22;18312;51.486;7.144;2023-02-17T14:41:21;13.50;99.90
31733;DHT22;18312;51.486;7.144;2023-02-17T14:43:48;13.40;99.90
31733;DHT22;18312;51.486;7.144;2023-02-17T14:46:14;13.20;99.90
31733;DHT22;18312;51.486;7.144;2023-02-17T14:48:43;13.00;99.90
31733;DHT22;18312;51.486;7.144;2023-02-17T14:51:10;12.80;99.90
31733;DHT22;18312;51.486;7.144;2023-02-17T14:53:37;12.70;99.90
31733;DHT22;18312;51.486;7.144;2023-02-17T14:56:07;12.60;99.90
31733;DHT22;18312;51.486;7.144;2023-02-17T14:58:34;12.50;99.90
31733;DHT22;18312;51.486;7.144;2023-02-17T15:01:01;12.50;99.90
31733;DHT22;18312;51.486;7.144;2023-02-17T15:03:30;12.40;99.90
31733;DHT22;18312;51.486;7.144;2023-02-17T15:05:57;12.30;99.90
31733;DHT22;18312;51.486;7.144;2023-02-17T15:08:27;12.30;99.90
31733;DHT22;18312;51.486;7.144;2023-02-17T15:10:55;12.30;99.90
31733;DHT22;18312;51.486;7.144;2023-02-17T15:13:23;12.20;99.90
31733;DHT22;18312;51.486;7.144;2023-02-17T15:15:50;12.20;99.90
31733;DHT22;18312;51.486;7.144;2023-02-17T15:18:18;12.20;99.90
31733;DHT22;18312;51.486;7.144;2023-02-17T15:20:46;12.20;99.90
31733;DHT22;18312;51.486;7.144;2023-02-17T15:23:14;12.20;99.90
31733;DHT22;18312;51.486;7.144;2023-02-17T15:25:43;12.10;99.90
31733;DHT22;18312;51.486;7.144;2023-02-17T15:28:10;12.10;99.90
31733;DHT22;18312;51.486;7.144;2023-02-17T15:30:38;12.00;99.90
31733;DHT22;18312;51.486;7.144;2023-02-17T15:33:07;12.00;99.90
31733;DHT22;18312;51.486;7.144;2023-02-17T15:35:35;12.00;99.90
31733;DHT22;18312;51.486;7.144;2023-02-17T15:38:03;12.00;99.90
31733;DHT22;18312;51.486;7.144;2023-02-17T15:40:30;12.00;99.90
31733;DHT22;18312;51.486;7.144;2023-02-17T15:42:57;12.00;99.90
31733;DHT22;18312;51.486;7.144;2023-02-17T15:45:25;12.10;99.90
31733;DHT22;18312;51.486;7.144;2023-02-17T15:47:55;12.10;99.90
31733;DHT22;18312;51.486;7.144;2023-02-17T15:50:22;12.10;99.90